sensor_id;sensor_type;location;lat;lon;timestamp;P1;durP1;ratioP1;P2;durP2;ratioP2
10416;SDS011;62605;49.432;8.680;2023-07-29T00:00:06;0.93;;;0.90;;
10416;SDS011;62605;49.432;8.680;2023-07-29T00:02:36;2.13;;;0.90;;
10416;SDS011;62605;49.432;8.680;2023-07-29T00:05:05;0.80;;;0.80;;
10416;SDS011;62605;49.432;8.680;2023-07-29T00:07:32;1.38;;;1.00;;
10416;SDS011;62605;49.432;8.680;2023-07-29T00:09:59;0.75;;;0.75;;
10416;SDS011;62605;49.432;8.680;2023-07-29T00:12:28;2.00;;;0.80;;
10416;SDS011;62605;49.432;8.680;2023-07-29T00:14:55;0.82;;;0.82;;
10416;SDS011;62605;49.432;8.680;2023-07-29T00:17:23;1.20;;;1.10;;
10416;SDS011;62605;49.432;8.680;2023-07-29T00:19:51;2.22;;;1.05;;
10416;SDS011;62605;49.432;8.680;2023-07-29T00:22:20;1.73;;;0.90;;
10416;SDS011;62605;49.432;8.680;2023-07-29T00:24:51;1.08;;;0.98;;
10416;SDS011;62605;49.432;8.680;2023-07-29T00:27:20;0.90;;;0.90;;
10416;SDS011;62605;49.432;8.680;2023-07-29T00:29:47;0.93;;;0.88;;
10416;SDS011;62605;49.432;8.680;2023-07-29T00:32:15;0.95;;;0.90;;
10416;SDS011;62605;49.432;8.680;2023-07-29T00:34:42;0.80;;;0.80;;
10416;SDS011;62605;49.432;8.680;2023-07-29T00:37:09;1.10;;;1.00;;
10416;SDS011;62605;49.432;8.680;2023-07-29T00:39:38;0.85;;;0.85;;
10416;SDS011;62605;49.432;8.680;2023-07-29T00:42:08;0.70;;;0.70;;
10416;SDS011;62605;49.432;8.680;2023-07-29T00:44:35;1.05;;;0.90;;
10416;SDS011;62605;49.432;8.680;2023-07-29T00:47:09;0.80;;;0.80;;
10416;SDS011;62605;49.432;8.680;2023-07-29T00:49:37;0.75;;;0.75;;
10416;SDS011;62605;49.432;8.680;2023-07-29T00:52:05;1.27;;;1.00;;
10416;SDS011;62605;49.432;8.680;2023-07-29T00:54:39;2.25;;;0.90;;
10416;SDS011;62605;49.432;8.680;2023-07-29T00:57:07;1.10;;;0.80;;
10416;SDS011;62605;49.432;8.680;2023-07-29T00:59:40;1.15;;;1.05;;
10416;SDS011;62605;49.432;8.680;2023-07-29T01:02:13;0.70;;;0.70;;
10416;SDS011;62605;49.432;8.680;2023-07-29T01:04:46;1.20;;;1.10;;
10416;SDS011;62605;49.432;8.680;2023-07-29T01:07:21;1.10;;;1.00;;
10416;SDS011;62605;49.432;8.680;2023-07-29T01:10:00;1.88;;;1.30;;
10416;SDS011;62605;49.432;8.680;2023-07-29T01:12:36;0.98;;;0.90;;
10416;SDS011;62605;49.432;8.680;2023-07-29T01:15:09;1.42;;;0.80;;
10416;SDS011;62605;49.432;8.680;2023-07-29T01:17:42;0.90;;;0.90;;
10416;SDS011;62605;49.432;8.680;2023-07-29T01:20:13;1.40;;;1.10;;
10416;SDS011;62605;49.432;8.680;2023-07-29T01:22:42;0.82;;;0.82;;
10416;SDS011;62605;49.432;8.680;2023-07-29T01:25:11;0.85;;;0.82;;
10416;SDS011;62605;49.432;8.680;2023-07-29T01:27:40;1.65;;;0.90;;
10416;SDS011;62605;49.432;8.680;2023-07-29T01:30:11;0.85;;;0.85;;
10416;SDS011;62605;49.432;8.680;2023-07-29T01:32:39;1.10;;;1.00;;
10416;SDS011;62605;49.432;8.680;2023-07-29T01:35:15;0.85;;;0.85;;
10416;SDS011;62605;49.432;8.680;2023-07-29T01:37:52;1.10;;;0.90;;
10416;SDS011;62605;49.432;8.680;2023-07-29T01:40:30;0.90;;;0.90;;
10416;SDS011;62605;49.432;8.680;2023-07-29T01:42:58;1.60;;;1.17;;
10416;SDS011;62605;49.432;8.680;2023-07-29T01:45:25;1.17;;;0.82;;
10416;SDS011;62605;49.432;8.680;2023-07-29T01:47:53;0.90;;;0.90;;
10416;SDS011;62605;49.432;8.680;2023-07-29T01:50:25;1.95;;;1.08;;
10416;SDS011;62605;49.432;8.680;2023-07-29T01:52:57;3.80;;;1.33;;
10416;SDS011;62605;49.432;8.680;2023-07-29T01:55:36;1.98;;;0.85;;
10416;SDS011;62605;49.432;8.680;2023-07-29T01:58:04;0.90;;;0.90;;
10416;SDS011;62605;49.432;8.680;2023-07-29T02:00:33;1.55;;;0.93;;
10416;SDS011;62605;49.432;8.680;2023-07-29T02:03:01;1.05;;;0.98;;
10416;SDS011;62605;49.432;8.680;2023-07-29T02:05:29;0.68;;;0.68;;
10416;SDS011;62605;49.432;8.680;2023-07-29T02:07:57;0.90;;;0.90;;
10416;SDS011;62605;49.432;8.680;2023-07-29T02:10:25;1.13;;;0.98;;
10416;SDS011;62605;49.432;8.680;2023-07-29T02:12:54;1.05;;;0.95;;
10416;SDS011;62605;49.432;8.680;2023-07-29T02:15:22;1.17;;;1.08;;
10416;SDS011;62605;49.432;8.680;2023-07-29T02:17:52;1.05;;;0.95;;
10416;SDS011;62605;49.432;8.680;2023-07-29T02:20:23;1.63;;;0.85;;
10416;SDS011;62605;49.432;8.680;2023-07-29T02:22:55;0.98;;;0.98;;
10416;SDS011;62605;49.432;8.680;2023-07-29T02:25:34;2.13;;;1.02;;
10416;SDS011;62605;49.432;8.680;2023-07-29T02:28:05;0.90;;;0.90;;
10416;SDS011;62605;49.432;8.680;2023-07-29T02:30:44;2.53;;;1.10;;
10416;SDS011;62605;49.432;8.680;2023-07-29T02:33:26;0.80;;;0.80;;
10416;SDS011;62605;49.432;8.680;2023-07-29T02:36:06;0.98;;;0.82;;
10416;SDS011;62605;49.432;8.680;2023-07-29T02:38:40;1.10;;;1.00;;
10416;SDS011;62605;49.432;8.680;2023-07-29T02:41:10;0.85;;;0.85;;
10416;SDS011;62605;49.432;8.680;2023-07-29T03:42:26;1.00;;;1.00;;
10416;SDS011;62605;49.432;8.680;2023-07-29T03:45:00;2.63;;;0.98;;
10416;SDS011;62605;49.432;8.680;2023-07-29T04:12:58;1.05;;;0.80;;
10416;SDS011;62605;49.432;8.680;2023-07-29T05:45:08;1.75;;;1.20;;
10416;SDS011;62605;49.432;8.680;2023-07-29T05:47:44;1.88;;;1.00;;
10416;SDS011;62605;49.432;8.680;2023-07-29T05:50:12;1.25;;;1.15;;
10416;SDS011;62605;49.432;8.680;2023-07-29T05:52:44;1.38;;;1.27;;
10416;SDS011;62605;49.432;8.680;2023-07-29T05:55:15;4.38;;;1.27;;
10416;SDS011;62605;49.432;8.680;2023-07-29T05:58:06;1.15;;;1.10;;
10416;SDS011;62605;49.432;8.680;2023-07-29T06:04:49;2.20;;;1.20;;
10416;SDS011;62605;49.432;8.680;2023-07-29T06:07:36;1.25;;;1.15;;
10416;SDS011;62605;49.432;8.680;2023-07-29T06:12:50;1.48;;;1.15;;
10416;SDS011;62605;49.432;8.680;2023-07-29T07:03:45;2.55;;;1.50;;
10416;SDS011;62605;49.432;8.680;2023-07-29T07:30:30;3.22;;;1.55;;
10416;SDS011;62605;49.432;8.680;2023-07-29T07:33:36;2.03;;;1.40;;
10416;SDS011;62605;49.432;8.680;2023-07-29T07:36:27;2.20;;;2.00;;
10416;SDS011;62605;49.432;8.680;2023-07-29T07:39:02;2.08;;;1.88;;
10416;SDS011;62605;49.432;8.680;2023-07-29T07:44:52;2.28;;;1.90;;
10416;SDS011;62605;49.432;8.680;2023-07-29T07:50:43;2.35;;;1.50;;
10416;SDS011;62605;49.432;8.680;2023-07-29T07:53:23;1.65;;;1.55;;
10416;SDS011;62605;49.432;8.680;2023-07-29T07:56:42;2.95;;;1.60;;
10416;SDS011;62605;49.432;8.680;2023-07-29T08:18:47;5.00;;;1.52;;
10416;SDS011;62605;49.432;8.680;2023-07-29T08:25:05;1.80;;;1.40;;
10416;SDS011;62605;49.432;8.680;2023-07-29T08:27:42;2.63;;;1.80;;
10416;SDS011;62605;49.432;8.680;2023-07-29T08:33:44;1.90;;;1.65;;
10416;SDS011;62605;49.432;8.680;2023-07-29T08:46:59;2.13;;;1.58;;
10416;SDS011;62605;49.432;8.680;2023-07-29T08:49:27;4.32;;;1.83;;
10416;SDS011;62605;49.432;8.680;2023-07-29T08:51:57;1.70;;;1.60;;
10416;SDS011;62605;49.432;8.680;2023-07-29T08:54:26;1.90;;;1.52;;
10416;SDS011;62605;49.432;8.680;2023-07-29T08:56:56;1.73;;;1.30;;
10416;SDS011;62605;49.432;8.680;2023-07-29T08:59:23;2.35;;;1.50;;
10416;SDS011;62605;49.432;8.680;2023-07-29T09:01:52;1.60;;;1.42;;
10416;SDS011;62605;49.432;8.680;2023-07-29T09:04:24;1.45;;;1.35;;
10416;SDS011;62605;49.432;8.680;2023-07-29T09:06:56;1.75;;;1.65;;
10416;SDS011;62605;49.432;8.680;2023-07-29T09:09:24;2.50;;;1.60;;
10416;SDS011;62605;49.432;8.680;2023-07-29T09:11:52;2.33;;;1.75;;
10416;SDS011;62605;49.432;8.680;2023-07-29T09:14:19;2.10;;;1.58;;
10416;SDS011;62605;49.432;8.680;2023-07-29T09:16:46;2.15;;;1.52;;
10416;SDS011;62605;49.432;8.680;2023-07-29T09:19:14;2.10;;;1.80;;
10416;SDS011;62605;49.432;8.680;2023-07-29T09:21:48;1.98;;;1.60;;
10416;SDS011;62605;49.432;8.680;2023-07-29T09:24:16;1.95;;;1.63;;
10416;SDS011;62605;49.432;8.680;2023-07-29T09:26:48;1.70;;;1.60;;
10416;SDS011;62605;49.432;8.680;2023-07-29T09:29:21;4.07;;;1.77;;
10416;SDS011;62605;49.432;8.680;2023-07-29T09:31:50;1.70;;;1.40;;
10416;SDS011;62605;49.432;8.680;2023-07-29T09:34:19;1.52;;;1.20;;
10416;SDS011;62605;49.432;8.680;2023-07-29T09:36:50;1.52;;;1.42;;
10416;SDS011;62605;49.432;8.680;2023-07-29T09:39:19;1.38;;;1.27;;
10416;SDS011;62605;49.432;8.680;2023-07-29T09:41:50;1.42;;;1.33;;
10416;SDS011;62605;49.432;8.680;2023-07-29T09:44:18;1.58;;;1.48;;
10416;SDS011;62605;49.432;8.680;2023-07-29T09:46:48;2.92;;;2.45;;
10416;SDS011;62605;49.432;8.680;2023-07-29T09:49:15;1.77;;;1.27;;
10416;SDS011;62605;49.432;8.680;2023-07-29T09:51:42;2.30;;;1.30;;
10416;SDS011;62605;49.432;8.680;2023-07-29T09:54:12;1.20;;;1.10;;
10416;SDS011;62605;49.432;8.680;2023-07-29T09:56:41;1.60;;;1.40;;
10416;SDS011;62605;49.432;8.680;2023-07-29T09:59:10;1.40;;;1.30;;
10416;SDS011;62605;49.432;8.680;2023-07-29T10:01:37;2.45;;;1.60;;
10416;SDS011;62605;49.432;8.680;2023-07-29T10:04:05;2.72;;;1.15;;
10416;SDS011;62605;49.432;8.680;2023-07-29T10:06:41;1.70;;;1.30;;
10416;SDS011;62605;49.432;8.680;2023-07-29T10:09:10;1.20;;;1.20;;
10416;SDS011;62605;49.432;8.680;2023-07-29T10:11:42;1.38;;;1.27;;
10416;SDS011;62605;49.432;8.680;2023-07-29T10:14:15;1.23;;;1.05;;
10416;SDS011;62605;49.432;8.680;2023-07-29T10:16:44;1.30;;;1.20;;
10416;SDS011;62605;49.432;8.680;2023-07-29T10:19:13;1.98;;;1.33;;
10416;SDS011;62605;49.432;8.680;2023-07-29T10:21:49;1.58;;;1.48;;
10416;SDS011;62605;49.432;8.680;2023-07-29T10:24:19;1.13;;;1.13;;
10416;SDS011;62605;49.432;8.680;2023-07-29T10:26:53;4.15;;;1.38;;
10416;SDS011;62605;49.432;8.680;2023-07-29T10:29:25;1.40;;;1.30;;
10416;SDS011;62605;49.432;8.680;2023-07-29T10:31:57;2.10;;;1.10;;
10416;SDS011;62605;49.432;8.680;2023-07-29T10:34:30;1.88;;;1.38;;
10416;SDS011;62605;49.432;8.680;2023-07-29T10:37:15;1.33;;;1.23;;
10416;SDS011;62605;49.432;8.680;2023-07-29T10:39:52;2.50;;;1.33;;
10416;SDS011;62605;49.432;8.680;2023-07-29T10:42:20;1.50;;;1.40;;
10416;SDS011;62605;49.432;8.680;2023-07-29T10:44:53;2.42;;;1.42;;
10416;SDS011;62605;49.432;8.680;2023-07-29T10:47:24;1.52;;;1.42;;
10416;SDS011;62605;49.432;8.680;2023-07-29T10:49:52;1.25;;;1.15;;
10416;SDS011;62605;49.432;8.680;2023-07-29T10:52:40;1.67;;;1.30;;
10416;SDS011;62605;49.432;8.680;2023-07-29T10:55:23;1.67;;;1.45;;
10416;SDS011;62605;49.432;8.680;2023-07-29T10:57:52;1.50;;;1.40;;
10416;SDS011;62605;49.432;8.680;2023-07-29T11:00:33;1.48;;;1.30;;
10416;SDS011;62605;49.432;8.680;2023-07-29T11:03:03;1.42;;;1.33;;
10416;SDS011;62605;49.432;8.680;2023-07-29T11:05:42;1.45;;;1.17;;
10416;SDS011;62605;49.432;8.680;2023-07-29T11:08:22;1.25;;;1.15;;
10416;SDS011;62605;49.432;8.680;2023-07-29T11:11:04;1.52;;;1.35;;
10416;SDS011;62605;49.432;8.680;2023-07-29T11:13:33;1.63;;;1.52;;
10416;SDS011;62605;49.432;8.680;2023-07-29T11:16:01;1.60;;;1.50;;
10416;SDS011;62605;49.432;8.680;2023-07-29T11:18:32;1.48;;;1.38;;
10416;SDS011;62605;49.432;8.680;2023-07-29T11:21:00;1.45;;;1.27;;
10416;SDS011;62605;49.432;8.680;2023-07-29T11:23:30;1.40;;;1.30;;
10416;SDS011;62605;49.432;8.680;2023-07-29T11:26:03;1.25;;;1.15;;
10416;SDS011;62605;49.432;8.680;2023-07-29T11:28:37;1.98;;;1.30;;
10416;SDS011;62605;49.432;8.680;2023-07-29T11:31:09;2.13;;;1.60;;
10416;SDS011;62605;49.432;8.680;2023-07-29T11:33:38;3.05;;;1.33;;
10416;SDS011;62605;49.432;8.680;2023-07-29T11:36:17;1.30;;;1.20;;
10416;SDS011;62605;49.432;8.680;2023-07-29T11:38:45;1.25;;;1.15;;
10416;SDS011;62605;49.432;8.680;2023-07-29T11:41:20;1.77;;;1.30;;
10416;SDS011;62605;49.432;8.680;2023-07-29T11:43:48;1.10;;;1.05;;
10416;SDS011;62605;49.432;8.680;2023-07-29T11:46:16;1.02;;;1.02;;
10416;SDS011;62605;49.432;8.680;2023-07-29T11:48:47;1.67;;;1.38;;
10416;SDS011;62605;49.432;8.680;2023-07-29T11:51:15;1.50;;;1.40;;
10416;SDS011;62605;49.432;8.680;2023-07-29T11:53:43;1.38;;;1.27;;
10416;SDS011;62605;49.432;8.680;2023-07-29T11:56:13;1.02;;;1.02;;
10416;SDS011;62605;49.432;8.680;2023-07-29T11:58:43;1.25;;;1.15;;
10416;SDS011;62605;49.432;8.680;2023-07-29T12:01:11;1.15;;;1.05;;
10416;SDS011;62605;49.432;8.680;2023-07-29T12:03:39;0.93;;;0.88;;
10416;SDS011;62605;49.432;8.680;2023-07-29T12:06:08;1.08;;;1.08;;
10416;SDS011;62605;49.432;8.680;2023-07-29T12:08:35;1.33;;;1.23;;
10416;SDS011;62605;49.432;8.680;2023-07-29T12:11:03;1.10;;;1.00;;
10416;SDS011;62605;49.432;8.680;2023-07-29T12:13:35;1.10;;;1.10;;
10416;SDS011;62605;49.432;8.680;2023-07-29T12:16:04;1.23;;;1.13;;
10416;SDS011;62605;49.432;8.680;2023-07-29T12:18:32;1.20;;;1.10;;
10416;SDS011;62605;49.432;8.680;2023-07-29T12:21:02;1.15;;;1.05;;
10416;SDS011;62605;49.432;8.680;2023-07-29T12:23:30;0.95;;;0.90;;
10416;SDS011;62605;49.432;8.680;2023-07-29T12:25:58;1.30;;;1.20;;
10416;SDS011;62605;49.432;8.680;2023-07-29T12:28:29;1.25;;;1.15;;
10416;SDS011;62605;49.432;8.680;2023-07-29T12:30:58;1.17;;;1.00;;
10416;SDS011;62605;49.432;8.680;2023-07-29T12:33:33;1.20;;;1.10;;
10416;SDS011;62605;49.432;8.680;2023-07-29T12:36:07;1.00;;;1.00;;
10416;SDS011;62605;49.432;8.680;2023-07-29T12:38:38;1.13;;;1.08;;
10416;SDS011;62605;49.432;8.680;2023-07-29T12:41:09;1.70;;;1.42;;
10416;SDS011;62605;49.432;8.680;2023-07-29T12:44:03;1.35;;;1.20;;
10416;SDS011;62605;49.432;8.680;2023-07-29T12:46:30;1.80;;;1.25;;
10416;SDS011;62605;49.432;8.680;2023-07-29T12:48:59;1.23;;;1.02;;
10416;SDS011;62605;49.432;8.680;2023-07-29T12:51:26;1.15;;;0.88;;
10416;SDS011;62605;49.432;8.680;2023-07-29T12:53:53;1.10;;;1.00;;
10416;SDS011;62605;49.432;8.680;2023-07-29T12:56:20;1.45;;;1.33;;
10416;SDS011;62605;49.432;8.680;2023-07-29T12:58:47;1.60;;;1.10;;
10416;SDS011;62605;49.432;8.680;2023-07-29T13:01:14;2.65;;;1.20;;
10416;SDS011;62605;49.432;8.680;2023-07-29T13:03:43;2.47;;;1.35;;
10416;SDS011;62605;49.432;8.680;2023-07-29T13:06:11;1.30;;;1.20;;
10416;SDS011;62605;49.432;8.680;2023-07-29T13:08:38;1.25;;;1.00;;
10416;SDS011;62605;49.432;8.680;2023-07-29T13:11:05;1.27;;;1.20;;
10416;SDS011;62605;49.432;8.680;2023-07-29T13:13:32;1.20;;;1.13;;
10416;SDS011;62605;49.432;8.680;2023-07-29T13:15:59;1.25;;;1.15;;
10416;SDS011;62605;49.432;8.680;2023-07-29T13:18:27;1.52;;;1.13;;
10416;SDS011;62605;49.432;8.680;2023-07-29T13:20:55;1.20;;;1.20;;
10416;SDS011;62605;49.432;8.680;2023-07-29T13:23:23;1.10;;;1.10;;
10416;SDS011;62605;49.432;8.680;2023-07-29T13:25:50;1.20;;;1.10;;
10416;SDS011;62605;49.432;8.680;2023-07-29T13:28:17;1.60;;;1.00;;
10416;SDS011;62605;49.432;8.680;2023-07-29T13:30:44;1.13;;;1.05;;
10416;SDS011;62605;49.432;8.680;2023-07-29T13:33:12;1.30;;;1.20;;
10416;SDS011;62605;49.432;8.680;2023-07-29T13:35:39;1.10;;;1.10;;
10416;SDS011;62605;49.432;8.680;2023-07-29T13:38:06;2.15;;;1.40;;
10416;SDS011;62605;49.432;8.680;2023-07-29T13:40:35;1.35;;;1.25;;
10416;SDS011;62605;49.432;8.680;2023-07-29T13:43:02;1.20;;;1.13;;
10416;SDS011;62605;49.432;8.680;2023-07-29T13:45:29;1.27;;;1.17;;
10416;SDS011;62605;49.432;8.680;2023-07-29T13:47:56;1.83;;;1.20;;
10416;SDS011;62605;49.432;8.680;2023-07-29T13:50:23;3.47;;;1.10;;
10416;SDS011;62605;49.432;8.680;2023-07-29T13:52:50;1.95;;;1.13;;
10416;SDS011;62605;49.432;8.680;2023-07-29T13:55:17;1.88;;;0.93;;
10416;SDS011;62605;49.432;8.680;2023-07-29T13:57:45;1.20;;;1.10;;
10416;SDS011;62605;49.432;8.680;2023-07-29T14:00:13;0.98;;;0.98;;
10416;SDS011;62605;49.432;8.680;2023-07-29T14:02:41;1.20;;;1.10;;
10416;SDS011;62605;49.432;8.680;2023-07-29T14:05:08;1.27;;;1.17;;
10416;SDS011;62605;49.432;8.680;2023-07-29T14:07:36;1.45;;;1.35;;
10416;SDS011;62605;49.432;8.680;2023-07-29T14:10:04;1.92;;;1.10;;
10416;SDS011;62605;49.432;8.680;2023-07-29T14:12:31;1.13;;;1.10;;
10416;SDS011;62605;49.432;8.680;2023-07-29T14:14:59;1.40;;;1.30;;
10416;SDS011;62605;49.432;8.680;2023-07-29T14:17:27;1.02;;;1.02;;
10416;SDS011;62605;49.432;8.680;2023-07-29T14:19:54;2.72;;;1.52;;
10416;SDS011;62605;49.432;8.680;2023-07-29T14:22:21;1.40;;;1.30;;
10416;SDS011;62605;49.432;8.680;2023-07-29T14:24:48;1.10;;;1.10;;
10416;SDS011;62605;49.432;8.680;2023-07-29T14:27:15;1.45;;;1.20;;
10416;SDS011;62605;49.432;8.680;2023-07-29T14:29:42;2.50;;;1.30;;
10416;SDS011;62605;49.432;8.680;2023-07-29T14:32:11;2.55;;;1.20;;
10416;SDS011;62605;49.432;8.680;2023-07-29T14:34:40;1.30;;;1.20;;
10416;SDS011;62605;49.432;8.680;2023-07-29T14:37:07;1.27;;;1.10;;
10416;SDS011;62605;49.432;8.680;2023-07-29T14:39:34;0.95;;;0.95;;
10416;SDS011;62605;49.432;8.680;2023-07-29T14:42:01;1.20;;;1.10;;
10416;SDS011;62605;49.432;8.680;2023-07-29T14:44:28;2.25;;;1.20;;
10416;SDS011;62605;49.432;8.680;2023-07-29T14:46:55;1.15;;;1.00;;
10416;SDS011;62605;49.432;8.680;2023-07-29T14:49:24;0.98;;;0.98;;
10416;SDS011;62605;49.432;8.680;2023-07-29T14:51:51;1.30;;;1.20;;
10416;SDS011;62605;49.432;8.680;2023-07-29T14:54:18;1.23;;;1.00;;
10416;SDS011;62605;49.432;8.680;2023-07-29T14:56:45;1.30;;;1.20;;
10416;SDS011;62605;49.432;8.680;2023-07-29T14:59:12;1.58;;;1.02;;
10416;SDS011;62605;49.432;8.680;2023-07-29T15:01:39;1.25;;;1.15;;
10416;SDS011;62605;49.432;8.680;2023-07-29T15:04:06;1.50;;;1.20;;
10416;SDS011;62605;49.432;8.680;2023-07-29T15:06:34;1.20;;;1.10;;
10416;SDS011;62605;49.432;8.680;2023-07-29T15:09:03;1.30;;;1.00;;
10416;SDS011;62605;49.432;8.680;2023-07-29T15:11:31;2.35;;;1.30;;
10416;SDS011;62605;49.432;8.680;2023-07-29T15:13:59;1.45;;;1.30;;
10416;SDS011;62605;49.432;8.680;2023-07-29T15:16:29;1.40;;;1.30;;
10416;SDS011;62605;49.432;8.680;2023-07-29T15:18:56;1.55;;;1.30;;
10416;SDS011;62605;49.432;8.680;2023-07-29T15:21:25;1.45;;;1.35;;
10416;SDS011;62605;49.432;8.680;2023-07-29T15:23:53;1.52;;;1.33;;
10416;SDS011;62605;49.432;8.680;2023-07-29T15:26:20;1.70;;;1.60;;
10416;SDS011;62605;49.432;8.680;2023-07-29T15:28:47;3.10;;;1.60;;
10416;SDS011;62605;49.432;8.680;2023-07-29T15:31:16;1.40;;;1.30;;
10416;SDS011;62605;49.432;8.680;2023-07-29T15:33:44;1.50;;;1.40;;
10416;SDS011;62605;49.432;8.680;2023-07-29T15:36:11;1.65;;;1.50;;
10416;SDS011;62605;49.432;8.680;2023-07-29T15:38:38;1.40;;;1.27;;
10416;SDS011;62605;49.432;8.680;2023-07-29T15:41:06;2.45;;;1.50;;
10416;SDS011;62605;49.432;8.680;2023-07-29T15:43:33;1.50;;;1.40;;
10416;SDS011;62605;49.432;8.680;2023-07-29T15:46:00;1.08;;;0.98;;
10416;SDS011;62605;49.432;8.680;2023-07-29T15:48:28;1.73;;;1.42;;
10416;SDS011;62605;49.432;8.680;2023-07-29T15:50:55;2.17;;;1.50;;
10416;SDS011;62605;49.432;8.680;2023-07-29T15:53:22;1.40;;;1.30;;
10416;SDS011;62605;49.432;8.680;2023-07-29T15:55:49;1.50;;;1.40;;
10416;SDS011;62605;49.432;8.680;2023-07-29T15:58:18;1.30;;;1.20;;
10416;SDS011;62605;49.432;8.680;2023-07-29T16:00:45;1.60;;;1.50;;
10416;SDS011;62605;49.432;8.680;2023-07-29T16:03:12;3.50;;;1.27;;
10416;SDS011;62605;49.432;8.680;2023-07-29T16:05:39;2.28;;;1.02;;
10416;SDS011;62605;49.432;8.680;2023-07-29T16:08:06;3.05;;;1.38;;
10416;SDS011;62605;49.432;8.680;2023-07-29T16:10:33;1.40;;;1.30;;
10416;SDS011;62605;49.432;8.680;2023-07-29T16:13:03;2.25;;;1.15;;
10416;SDS011;62605;49.432;8.680;2023-07-29T16:15:48;1.92;;;1.35;;
10416;SDS011;62605;49.432;8.680;2023-07-29T16:18:20;1.85;;;1.50;;
10416;SDS011;62605;49.432;8.680;2023-07-29T16:20:49;1.42;;;1.30;;
10416;SDS011;62605;49.432;8.680;2023-07-29T16:23:18;1.23;;;1.13;;
10416;SDS011;62605;49.432;8.680;2023-07-29T16:25:45;1.50;;;1.30;;
10416;SDS011;62605;49.432;8.680;2023-07-29T16:28:12;1.55;;;1.27;;
10416;SDS011;62605;49.432;8.680;2023-07-29T16:30:39;4.88;;;1.52;;
10416;SDS011;62605;49.432;8.680;2023-07-29T16:33:10;1.60;;;1.50;;
10416;SDS011;62605;49.432;8.680;2023-07-29T16:35:38;1.60;;;1.40;;
10416;SDS011;62605;49.432;8.680;2023-07-29T16:38:06;1.17;;;1.08;;
10416;SDS011;62605;49.432;8.680;2023-07-29T16:40:33;1.65;;;1.40;;
10416;SDS011;62605;49.432;8.680;2023-07-29T16:43:00;1.60;;;1.50;;
10416;SDS011;62605;49.432;8.680;2023-07-29T16:45:28;1.17;;;1.08;;
10416;SDS011;62605;49.432;8.680;2023-07-29T16:47:55;1.98;;;1.50;;
10416;SDS011;62605;49.432;8.680;2023-07-29T16:50:24;1.40;;;1.30;;
10416;SDS011;62605;49.432;8.680;2023-07-29T16:52:51;3.15;;;1.42;;
10416;SDS011;62605;49.432;8.680;2023-07-29T16:55:18;2.90;;;1.48;;
10416;SDS011;62605;49.432;8.680;2023-07-29T16:57:46;2.65;;;1.40;;
10416;SDS011;62605;49.432;8.680;2023-07-29T17:00:13;1.88;;;1.48;;
10416;SDS011;62605;49.432;8.680;2023-07-29T17:02:40;1.98;;;1.45;;
10416;SDS011;62605;49.432;8.680;2023-07-29T17:05:07;1.95;;;1.63;;
10416;SDS011;62605;49.432;8.680;2023-07-29T17:07:36;1.95;;;1.60;;
10416;SDS011;62605;49.432;8.680;2023-07-29T17:10:03;2.78;;;1.52;;
10416;SDS011;62605;49.432;8.680;2023-07-29T17:12:31;1.98;;;1.38;;
10416;SDS011;62605;49.432;8.680;2023-07-29T17:15:00;2.38;;;1.80;;
10416;SDS011;62605;49.432;8.680;2023-07-29T17:17:27;1.25;;;1.15;;
10416;SDS011;62605;49.432;8.680;2023-07-29T17:19:54;1.92;;;1.50;;
10416;SDS011;62605;49.432;8.680;2023-07-29T17:22:23;1.40;;;1.30;;
10416;SDS011;62605;49.432;8.680;2023-07-29T17:24:59;2.28;;;1.40;;
10416;SDS011;62605;49.432;8.680;2023-07-29T17:27:32;1.40;;;1.30;;
10416;SDS011;62605;49.432;8.680;2023-07-29T17:30:07;1.58;;;1.48;;
10416;SDS011;62605;49.432;8.680;2023-07-29T17:32:34;2.92;;;2.25;;
10416;SDS011;62605;49.432;8.680;2023-07-29T17:35:10;1.90;;;1.80;;
10416;SDS011;62605;49.432;8.680;2023-07-29T17:37:55;1.98;;;1.55;;
10416;SDS011;62605;49.432;8.680;2023-07-29T17:40:28;1.92;;;1.73;;
10416;SDS011;62605;49.432;8.680;2023-07-29T17:42:55;1.60;;;1.50;;
10416;SDS011;62605;49.432;8.680;2023-07-29T17:45:22;2.08;;;1.42;;
10416;SDS011;62605;49.432;8.680;2023-07-29T17:47:49;1.65;;;1.50;;
10416;SDS011;62605;49.432;8.680;2023-07-29T17:50:16;2.30;;;1.63;;
10416;SDS011;62605;49.432;8.680;2023-07-29T17:52:44;1.88;;;1.60;;
10416;SDS011;62605;49.432;8.680;2023-07-29T17:55:11;2.65;;;1.60;;
10416;SDS011;62605;49.432;8.680;2023-07-29T17:57:40;2.25;;;1.67;;
10416;SDS011;62605;49.432;8.680;2023-07-29T18:00:07;2.10;;;1.73;;
10416;SDS011;62605;49.432;8.680;2023-07-29T18:02:35;1.90;;;1.73;;
10416;SDS011;62605;49.432;8.680;2023-07-29T18:05:02;3.80;;;1.80;;
10416;SDS011;62605;49.432;8.680;2023-07-29T18:07:29;3.28;;;1.65;;
10416;SDS011;62605;49.432;8.680;2023-07-29T18:09:56;2.00;;;1.80;;
10416;SDS011;62605;49.432;8.680;2023-07-29T18:12:23;4.97;;;1.90;;
10416;SDS011;62605;49.432;8.680;2023-07-29T18:14:55;2.33;;;1.77;;
10416;SDS011;62605;49.432;8.680;2023-07-29T18:17:23;1.80;;;1.70;;
10416;SDS011;62605;49.432;8.680;2023-07-29T18:19:51;2.28;;;1.48;;
10416;SDS011;62605;49.432;8.680;2023-07-29T18:22:18;2.63;;;1.63;;
10416;SDS011;62605;49.432;8.680;2023-07-29T18:24:46;4.75;;;1.60;;
10416;SDS011;62605;49.432;8.680;2023-07-29T18:27:13;2.25;;;1.80;;
10416;SDS011;62605;49.432;8.680;2023-07-29T18:29:42;5.07;;;2.80;;
10416;SDS011;62605;49.432;8.680;2023-07-29T18:32:11;3.25;;;2.42;;
10416;SDS011;62605;49.432;8.680;2023-07-29T18:34:38;4.30;;;2.85;;
10416;SDS011;62605;49.432;8.680;2023-07-29T18:37:06;3.70;;;2.80;;
10416;SDS011;62605;49.432;8.680;2023-07-29T18:39:33;2.25;;;1.98;;
10416;SDS011;62605;49.432;8.680;2023-07-29T18:42:01;2.70;;;1.70;;
10416;SDS011;62605;49.432;8.680;2023-07-29T18:44:29;2.85;;;1.90;;
10416;SDS011;62605;49.432;8.680;2023-07-29T18:46:57;3.40;;;1.92;;
10416;SDS011;62605;49.432;8.680;2023-07-29T18:49:26;2.45;;;2.10;;
10416;SDS011;62605;49.432;8.680;2023-07-29T18:51:54;2.70;;;1.65;;
10416;SDS011;62605;49.432;8.680;2023-07-29T18:54:21;2.55;;;1.63;;
10416;SDS011;62605;49.432;8.680;2023-07-29T18:56:48;1.88;;;1.75;;
10416;SDS011;62605;49.432;8.680;2023-07-29T18:59:16;4.00;;;1.88;;
10416;SDS011;62605;49.432;8.680;2023-07-29T19:01:45;1.90;;;1.70;;
10416;SDS011;62605;49.432;8.680;2023-07-29T19:04:12;4.95;;;2.20;;
10416;SDS011;62605;49.432;8.680;2023-07-29T19:06:41;4.07;;;2.60;;
10416;SDS011;62605;49.432;8.680;2023-07-29T19:09:10;1.73;;;1.60;;
10416;SDS011;62605;49.432;8.680;2023-07-29T19:11:37;3.38;;;1.50;;
10416;SDS011;62605;49.432;8.680;2023-07-29T19:14:05;1.98;;;1.70;;
10416;SDS011;62605;49.432;8.680;2023-07-29T19:16:32;2.80;;;1.67;;
10416;SDS011;62605;49.432;8.680;2023-07-29T19:19:00;3.00;;;1.58;;
10416;SDS011;62605;49.432;8.680;2023-07-29T19:21:29;3.17;;;1.67;;
10416;SDS011;62605;49.432;8.680;2023-07-29T19:23:57;2.85;;;2.00;;
10416;SDS011;62605;49.432;8.680;2023-07-29T19:26:26;4.25;;;1.75;;
10416;SDS011;62605;49.432;8.680;2023-07-29T19:28:54;1.70;;;1.60;;
10416;SDS011;62605;49.432;8.680;2023-07-29T19:31:27;1.67;;;1.58;;
10416;SDS011;62605;49.432;8.680;2023-07-29T19:33:58;1.45;;;1.33;;
10416;SDS011;62605;49.432;8.680;2023-07-29T19:36:30;2.88;;;1.70;;
10416;SDS011;62605;49.432;8.680;2023-07-29T19:39:05;1.83;;;1.70;;
10416;SDS011;62605;49.432;8.680;2023-07-29T19:41:34;3.78;;;1.90;;
10416;SDS011;62605;49.432;8.680;2023-07-29T19:44:04;2.10;;;1.90;;
10416;SDS011;62605;49.432;8.680;2023-07-29T19:49:47;3.80;;;1.95;;
10416;SDS011;62605;49.432;8.680;2023-07-29T19:52:17;2.17;;;1.98;;
10416;SDS011;62605;49.432;8.680;2023-07-29T19:54:45;2.63;;;1.77;;
10416;SDS011;62605;49.432;8.680;2023-07-29T19:57:24;2.28;;;1.88;;
10416;SDS011;62605;49.432;8.680;2023-07-29T19:59:54;4.28;;;2.20;;
10416;SDS011;62605;49.432;8.680;2023-07-29T20:02:23;1.50;;;1.40;;
10416;SDS011;62605;49.432;8.680;2023-07-29T20:04:51;1.75;;;1.33;;